createdAt,value
2022-12-18T08:31:19.459Z,19.90
2022-12-18T08:33:24.897Z,23.25
2022-12-18T08:35:35.844Z,19.13
2022-12-18T08:37:42.506Z,19.88
2022-12-18T08:39:47.951Z,19.90
2022-12-18T08:42:09.896Z,21.55
2022-12-18T08:44:28.129Z,24.67
2022-12-18T08:46:41.934Z,20.30
2022-12-18T08:48:47.588Z,20.77
2022-12-18T08:50:59.110Z,18.20
2022-12-18T08:53:05.682Z,20.92
2022-12-18T08:55:13.325Z,20.90
2022-12-18T08:57:18.506Z,22.55
2022-12-18T08:59:24.688Z,21.23
2022-12-18T09:01:30.073Z,20.45
2022-12-18T09:03:39.389Z,20.05
2022-12-18T09:05:45.189Z,21.27
2022-12-18T09:07:50.498Z,17.13
2022-12-18T09:09:56.384Z,17.75
2022-12-18T09:12:01.664Z,18.85
2022-12-18T09:14:07.318Z,24.10
2022-12-18T09:16:12.652Z,21.05
2022-12-18T09:18:19.907Z,21.15
2022-12-18T09:20:29.338Z,20.35
2022-12-18T09:22:35.282Z,24.33
2022-12-18T09:24:40.501Z,19.17
2022-12-18T09:26:47.499Z,20.58
2022-12-18T09:28:54.362Z,22.85
2022-12-18T09:31:00.313Z,20.33
2022-12-18T09:33:05.565Z,23.98
2022-12-18T09:35:12.522Z,26.13
2022-12-18T09:37:21.142Z,21.83
2022-12-18T09:39:27.172Z,21.85
2022-12-18T09:41:48.376Z,22.17
2022-12-18T09:43:59.430Z,23.73
2022-12-18T09:46:11.770Z,22.20
2022-12-18T09:48:25.831Z,19.40
2022-12-18T09:50:37.983Z,23.80
2022-12-18T09:52:53.381Z,23.70
2022-12-18T09:55:05.396Z,19.83
2022-12-18T09:57:17.161Z,21.63
2022-12-18T09:59:30.143Z,19.58
2022-12-18T10:01:43.909Z,18.35
2022-12-18T10:03:49.622Z,17.38
2022-12-18T10:06:08.975Z,20.30
2022-12-18T10:08:27.978Z,21.13
2022-12-18T10:10:44.778Z,18.35
2022-12-18T10:13:06.817Z,19.80
2022-12-18T10:15:28.199Z,19.30
2022-12-18T10:17:47.065Z,20.10
2022-12-18T10:20:03.345Z,21.90
2022-12-18T10:22:38.103Z,20.02
2022-12-18T10:24:56.895Z,18.58
2022-12-18T10:27:17.790Z,17.05
2022-12-18T10:29:23.735Z,20.55
2022-12-18T10:31:29.582Z,16.55
2022-12-18T10:33:37.969Z,20.52
2022-12-18T10:35:46.228Z,19.17
2022-12-18T10:38:10.941Z,19.10
2022-12-18T10:40:22.810Z,17.75
2022-12-18T10:42:28.562Z,15.73
2022-12-18T10:44:33.845Z,19.00
2022-12-18T10:46:39.411Z,19.95
2022-12-18T10:48:56.761Z,17.42
2022-12-18T10:51:12.725Z,20.70
2022-12-18T10:53:26.427Z,18.77
2022-12-18T10:55:39.657Z,19.13
2022-12-18T10:57:45.355Z,17.92
2022-12-18T10:59:57.599Z,17.70
2022-12-18T11:02:03.122Z,19.33
2022-12-18T11:04:13.496Z,17.30
2022-12-18T11:06:22.809Z,18.90
2022-12-18T11:08:28.247Z,19.85
2022-12-18T11:10:41.938Z,19.70
2022-12-18T11:12:47.762Z,19.20
2022-12-18T11:14:57.195Z,17.63
2022-12-18T11:19:40.954Z,22.92
2022-12-18T11:21:47.010Z,19.40
2022-12-18T11:23:55.834Z,18.88
2022-12-18T11:26:07.937Z,21.75
2022-12-18T11:28:42.195Z,21.55
2022-12-18T11:30:47.960Z,20.80
2022-12-18T11:32:57.070Z,26.58
2022-12-18T11:35:14.687Z,22.75
2022-12-18T11:37:22.537Z,18.70
2022-12-18T11:39:40.167Z,24.45
2022-12-18T11:42:09.734Z,22.75
2022-12-18T11:44:19.561Z,23.15
2022-12-18T11:46:34.848Z,21.05
2022-12-18T11:48:50.513Z,19.10
2022-12-18T11:50:58.736Z,23.63
2022-12-18T11:53:06.520Z,20.58
2022-12-18T11:55:17.835Z,21.77
2022-12-18T11:57:39.334Z,21.40
2022-12-18T11:59:59.609Z,22.27
2022-12-18T12:02:33.345Z,20.75
2022-12-18T12:04:55.777Z,20.08
2022-12-18T12:07:19.481Z,21.23
2022-12-18T12:09:38.479Z,25.23
2022-12-18T12:12:00.115Z,19.60
2022-12-18T12:14:32.436Z,17.55
2022-12-18T12:16:50.441Z,20.25
2022-12-18T12:19:14.234Z,16.42
2022-12-18T12:21:30.343Z,23.60
2022-12-18T12:23:47.776Z,22.10
2022-12-18T12:26:05.263Z,17.98
2022-12-18T12:28:26.376Z,20.30
2022-12-18T12:30:52.354Z,18.00
2022-12-18T12:33:20.881Z,21.90
2022-12-18T12:35:39.613Z,18.65
2022-12-18T12:37:59.920Z,19.08
2022-12-18T12:40:40.811Z,16.20
2022-12-18T12:42:54.954Z,18.08
2022-12-18T12:45:08.714Z,20.27
2022-12-18T12:47:24.700Z,19.70
2022-12-18T12:52:10.080Z,20.00
2022-12-18T12:54:25.240Z,16.90
2022-12-18T12:56:43.573Z,18.70
2022-12-18T12:59:02.391Z,17.42
2022-12-18T13:01:26.850Z,19.00
2022-12-18T13:03:52.526Z,21.13
2022-12-18T13:06:04.668Z,21.13
2022-12-18T13:08:14.062Z,19.67
2022-12-18T13:10:40.636Z,21.55
2022-12-18T13:12:58.422Z,22.10
2022-12-18T13:15:24.276Z,21.95
2022-12-18T13:17:34.904Z,20.92
2022-12-18T13:19:43.065Z,22.65
2022-12-18T13:21:58.853Z,22.23
2022-12-18T13:24:28.401Z,18.42
2022-12-18T13:26:36.952Z,19.55
2022-12-18T13:28:57.540Z,19.60
2022-12-18T13:31:04.092Z,21.83
2022-12-18T13:34:24.995Z,19.77
2022-12-18T13:36:31.088Z,18.13
2022-12-18T13:38:41.719Z,17.55
2022-12-18T13:41:02.605Z,18.05
2022-12-18T13:43:41.739Z,19.65
2022-12-18T13:45:51.711Z,16.90
2022-12-18T13:47:57.664Z,17.15
2022-12-18T13:50:13.113Z,17.70
2022-12-18T13:52:29.026Z,15.35
2022-12-18T13:54:40.081Z,15.32
2022-12-18T13:56:50.283Z,16.90
2022-12-18T13:59:24.814Z,17.80
2022-12-18T14:01:31.236Z,17.75
2022-12-18T14:03:36.919Z,15.07
2022-12-18T14:05:45.274Z,15.52
2022-12-18T14:07:53.504Z,16.60
2022-12-18T14:10:33.576Z,15.95
2022-12-18T14:12:46.517Z,16.88
2022-12-18T14:14:56.768Z,17.92
2022-12-18T14:17:03.551Z,18.30
2022-12-18T14:19:20.532Z,18.52
2022-12-18T14:21:30.424Z,15.55
2022-12-18T14:23:42.571Z,19.75
2022-12-18T14:25:51.070Z,20.98
2022-12-18T14:28:07.320Z,16.15
2022-12-18T14:30:30.146Z,14.80
2022-12-18T14:32:35.642Z,17.13
2022-12-18T14:34:41.194Z,20.65
2022-12-18T14:36:57.237Z,18.48
2022-12-18T14:39:05.061Z,18.23
2022-12-18T14:41:17.478Z,18.42
2022-12-18T14:43:22.990Z,18.10
2022-12-18T14:45:43.381Z,16.85
2022-12-18T14:47:48.781Z,17.42
2022-12-18T14:49:54.051Z,18.63
2022-12-18T14:52:02.056Z,20.35
2022-12-18T14:54:21.690Z,17.80
2022-12-18T14:56:30.872Z,16.45
2022-12-18T14:58:36.768Z,18.67
2022-12-18T15:00:46.421Z,19.02
2022-12-18T15:02:59.046Z,19.05
2022-12-18T15:05:12.928Z,17.08
2022-12-18T15:07:22.880Z,16.05
2022-12-18T15:09:31.193Z,16.05
2022-12-18T15:11:48.039Z,19.98
2022-12-18T15:13:53.376Z,16.58
2022-12-18T15:16:01.367Z,19.08
2022-12-18T15:18:16.338Z,15.20
2022-12-18T15:20:22.327Z,19.40
2022-12-18T15:22:32.507Z,16.17
2022-12-18T15:24:44.502Z,16.83
2022-12-18T15:26:50.139Z,20.42
2022-12-18T15:28:59.521Z,17.83
2022-12-18T15:31:24.280Z,18.02
2022-12-18T15:33:35.734Z,18.25
2022-12-18T15:35:45.320Z,18.63
2022-12-18T15:37:53.660Z,17.73
2022-12-18T15:40:01.631Z,20.40
2022-12-18T15:42:19.898Z,19.55
2022-12-18T15:44:28.467Z,21.00
2022-12-18T15:46:33.933Z,19.90
2022-12-18T15:48:44.242Z,20.55
2022-12-18T15:50:49.754Z,20.02
2022-12-18T15:52:58.548Z,17.80
2022-12-18T15:55:19.911Z,22.10
2022-12-18T15:57:27.955Z,20.10
2022-12-18T15:59:33.266Z,22.98
2022-12-18T16:01:42.413Z,21.98
2022-12-18T16:03:48.137Z,19.67
2022-12-18T16:05:53.518Z,18.10
2022-12-18T16:07:59.896Z,18.85
2022-12-18T16:10:08.616Z,18.65
2022-12-18T16:12:22.358Z,22.45
2022-12-18T16:14:30.348Z,23.30
2022-12-18T16:16:36.504Z,21.88
2022-12-18T16:18:42.586Z,22.02
2022-12-18T16:20:47.953Z,24.75
2022-12-18T16:22:54.394Z,21.33
2022-12-18T16:25:01.196Z,22.23
2022-12-18T16:27:09.739Z,22.15
2022-12-18T16:29:15.298Z,24.25
2022-12-18T16:31:20.625Z,21.83
2022-12-18T16:33:25.910Z,24.63
2022-12-18T16:35:31.851Z,24.35
2022-12-18T16:37:38.002Z,19.17
2022-12-18T16:39:45.412Z,21.30
2022-12-18T16:41:51.686Z,23.73
2022-12-18T16:44:00.329Z,19.90
2022-12-18T16:46:06.278Z,25.27
2022-12-18T16:48:12.080Z,21.80
2022-12-18T16:50:17.665Z,22.45
2022-12-18T16:52:24.889Z,21.88
2022-12-18T16:54:30.763Z,19.33
2022-12-18T16:56:39.406Z,27.95
2022-12-18T16:58:44.684Z,23.20
2022-12-18T17:00:53.282Z,21.40
2022-12-18T17:02:59.245Z,22.52
2022-12-18T17:05:05.149Z,22.10
2022-12-18T17:07:11.067Z,23.67
2022-12-18T17:09:18.521Z,21.08
2022-12-18T17:11:23.839Z,26.33
2022-12-18T17:13:30.513Z,22.98
2022-12-18T17:15:39.570Z,21.10
2022-12-18T17:17:47.604Z,26.20
2022-12-18T17:19:52.984Z,26.35
2022-12-18T17:21:58.622Z,24.02
2022-12-18T17:24:05.297Z,24.35
2022-12-18T17:26:11.071Z,20.63
2022-12-18T17:28:16.615Z,19.80
2022-12-18T17:30:22.120Z,22.92
2022-12-18T17:32:27.979Z,22.25
2022-12-18T17:34:37.313Z,27.08
2022-12-18T17:36:44.108Z,25.80
2022-12-18T17:38:55.444Z,24.88
2022-12-18T17:41:05.223Z,26.90
2022-12-18T17:43:11.898Z,25.92
2022-12-18T17:45:17.410Z,22.27
2022-12-18T17:47:22.945Z,23.95
2022-12-18T17:49:29.385Z,24.60
2022-12-18T17:51:37.233Z,21.98
2022-12-18T17:53:44.002Z,24.75
2022-12-18T17:55:58.239Z,28.55
2022-12-18T17:58:03.576Z,25.23
2022-12-18T18:00:11.470Z,25.50
2022-12-18T18:02:17.319Z,27.08
2022-12-18T18:04:22.942Z,24.77
2022-12-18T18:06:29.399Z,21.55
2022-12-18T18:08:39.963Z,19.85
2022-12-18T18:10:45.336Z,21.15
2022-12-18T18:13:03.024Z,22.52
2022-12-18T18:15:09.758Z,25.42
2022-12-18T18:17:15.504Z,26.33
2022-12-18T18:19:24.364Z,24.27
2022-12-18T18:21:31.075Z,27.02
2022-12-18T18:23:39.662Z,25.50
2022-12-18T18:25:46.923Z,22.95
2022-12-18T18:27:52.614Z,25.45
2022-12-18T18:29:57.873Z,23.15
2022-12-18T18:32:03.278Z,24.15
2022-12-18T18:34:08.679Z,26.08
2022-12-18T18:36:15.145Z,22.20
2022-12-18T18:38:20.613Z,28.10
2022-12-18T18:40:28.535Z,27.02
2022-12-18T18:42:34.032Z,28.00
2022-12-18T18:44:42.281Z,28.98
2022-12-18T18:46:53.801Z,63.13
2022-12-18T18:49:00.173Z,62.75
2022-12-18T18:51:09.562Z,46.30
2022-12-18T18:53:16.644Z,35.40
2022-12-18T18:55:25.503Z,26.35
2022-12-18T18:57:33.855Z,25.30
2022-12-18T18:59:39.162Z,26.02
2022-12-18T19:01:45.092Z,25.13
2022-12-18T19:03:51.785Z,25.55
2022-12-18T19:05:59.993Z,23.33
2022-12-18T19:08:05.380Z,29.63
2022-12-18T19:10:12.889Z,28.85
2022-12-18T19:12:30.675Z,26.40
2022-12-18T19:14:38.584Z,22.98
2022-12-18T19:16:45.605Z,30.75
2022-12-18T19:18:54.973Z,29.55
2022-12-18T19:21:07.055Z,28.58
2022-12-18T19:23:13.251Z,27.73
2022-12-18T19:25:18.910Z,30.73
2022-12-18T19:27:24.535Z,30.10
2022-12-18T19:29:29.794Z,23.33
2022-12-18T19:31:38.827Z,25.95
2022-12-18T19:33:46.974Z,25.40
2022-12-18T19:35:52.573Z,25.67
2022-12-18T19:37:58.111Z,27.17
2022-12-18T19:40:09.163Z,26.55
2022-12-18T19:42:24.599Z,30.98
2022-12-18T19:44:31.954Z,29.38
2022-12-18T19:46:42.044Z,30.52
2022-12-18T19:48:48.203Z,27.40
2022-12-18T19:50:53.509Z,30.00
2022-12-18T19:52:59.144Z,25.63
2022-12-18T19:55:04.728Z,24.08
2022-12-18T19:57:11.626Z,24.20
2022-12-18T19:59:17.305Z,22.40
2022-12-18T20:01:25.822Z,20.17
2022-12-18T20:03:34.174Z,22.33
2022-12-18T20:05:39.766Z,25.70
2022-12-18T20:07:45.212Z,27.23
2022-12-18T20:09:57.069Z,22.02
2022-12-18T20:12:07.623Z,25.35
2022-12-18T20:14:13.654Z,26.48
2022-12-18T20:16:19.549Z,25.98
2022-12-18T20:18:25.770Z,26.17
2022-12-18T20:20:33.755Z,26.65
2022-12-18T20:22:39.479Z,25.23
2022-12-18T20:24:45.056Z,25.38
2022-12-18T20:26:52.642Z,23.52
2022-12-18T20:28:58.971Z,27.50
2022-12-18T20:31:06.566Z,26.15
2022-12-18T20:33:11.969Z,25.70
2022-12-18T20:35:17.375Z,23.73
2022-12-18T20:37:25.859Z,22.40
2022-12-18T20:39:32.585Z,28.02
2022-12-18T20:41:39.291Z,26.60
2022-12-18T20:43:45.634Z,25.73
2022-12-18T20:45:51.233Z,24.52
2022-12-18T20:47:57.400Z,26.98
2022-12-18T20:50:02.893Z,27.52
2022-12-18T20:52:09.347Z,27.55
2022-12-18T20:54:17.406Z,29.20
2022-12-18T20:56:26.774Z,30.33
2022-12-18T20:58:33.886Z,30.48
2022-12-18T21:00:39.251Z,39.20
2022-12-18T21:02:44.660Z,36.97
2022-12-18T21:04:50.221Z,37.50
2022-12-18T21:07:02.407Z,36.47
2022-12-18T21:09:08.867Z,36.42
2022-12-18T21:11:42.383Z,31.25
2022-12-18T21:13:47.672Z,35.03
2022-12-18T21:15:59.515Z,29.55
2022-12-18T21:18:05.475Z,26.30
2022-12-18T21:20:17.591Z,30.13
2022-12-18T21:22:23.942Z,25.42
2022-12-18T21:24:32.487Z,23.95
2022-12-18T21:26:45.752Z,25.83
2022-12-18T21:28:57.211Z,26.23
2022-12-18T21:31:02.628Z,26.98
2022-12-18T21:33:08.261Z,27.80
2022-12-18T21:35:13.698Z,30.90
2022-12-18T21:37:19.131Z,27.10
2022-12-18T21:39:25.145Z,28.00
2022-12-18T21:41:49.855Z,23.50
2022-12-18T21:44:09.467Z,26.27
2022-12-18T21:46:14.745Z,22.33
2022-12-18T21:48:20.128Z,23.73
2022-12-18T21:50:25.448Z,23.67
2022-12-18T21:52:32.072Z,21.80
2022-12-18T21:54:38.061Z,24.65
2022-12-18T21:56:52.051Z,24.05
2022-12-18T21:59:00.005Z,23.95
2022-12-18T22:01:05.543Z,28.00
2022-12-18T22:03:18.195Z,25.88
2022-12-18T22:05:24.993Z,21.70
2022-12-18T22:07:31.783Z,24.08
2022-12-18T22:09:37.747Z,25.38
2022-12-18T22:11:43.370Z,27.02
2022-12-18T22:13:48.675Z,24.02
2022-12-18T22:15:56.663Z,23.65
2022-12-18T22:18:02.172Z,24.98
2022-12-18T22:20:09.363Z,23.02
2022-12-18T22:22:14.705Z,23.60
2022-12-18T22:24:22.794Z,23.25
2022-12-18T22:26:35.045Z,25.38
2022-12-18T22:28:55.678Z,23.73
2022-12-18T22:31:04.018Z,25.95
2022-12-18T22:33:09.474Z,21.58
2022-12-18T22:35:16.264Z,25.38
2022-12-18T22:37:21.952Z,27.05
2022-12-18T22:39:30.533Z,26.42
2022-12-18T22:41:36.199Z,26.77
2022-12-18T22:43:41.481Z,29.95
2022-12-18T22:45:47.453Z,24.60
2022-12-18T22:47:55.414Z,32.13
2022-12-18T22:50:01.001Z,25.30
2022-12-18T22:52:07.010Z,27.98
2022-12-18T22:54:13.044Z,25.90
2022-12-18T22:56:21.254Z,25.38
2022-12-18T22:58:26.710Z,22.85
2022-12-18T23:00:32.289Z,24.42
2022-12-18T23:02:37.853Z,24.92
2022-12-18T23:04:45.949Z,25.35
2022-12-18T23:06:51.353Z,24.40
2022-12-18T23:08:59.869Z,26.40
2022-12-18T23:11:05.261Z,26.65
2022-12-18T23:13:11.482Z,23.88
2022-12-18T23:15:17.838Z,24.25
2022-12-18T23:17:25.466Z,25.27
2022-12-18T23:19:30.841Z,25.20
2022-12-18T23:21:39.337Z,24.20
2022-12-18T23:23:45.286Z,23.15
2022-12-18T23:25:50.813Z,26.10
2022-12-18T23:27:56.135Z,24.52
2022-12-18T23:30:01.387Z,23.77
2022-12-18T23:32:07.058Z,22.50
2022-12-18T23:34:17.943Z,22.88
2022-12-18T23:36:24.081Z,23.95
2022-12-18T23:38:33.478Z,26.58
2022-12-18T23:40:38.766Z,26.35
2022-12-18T23:42:44.157Z,23.85
2022-12-18T23:44:49.475Z,22.67
2022-12-18T23:46:55.295Z,23.80
2022-12-18T23:49:02.013Z,25.88
2022-12-18T23:51:10.422Z,23.45
2022-12-18T23:53:16.068Z,26.05
2022-12-18T23:55:24.144Z,24.60
2022-12-18T23:57:29.954Z,24.00
2022-12-18T23:59:35.497Z,23.92
